首页
METAR-TAF:

METAR-TAF

机场 :

Julian Carroll Airport

杰克逊, 肯塔基州, 美国

纬度: 37-35-29N, 经度: 083-18-52W, 海拔: 421米

当前天气观测

该预报发布于12分钟前的22:24 UTC
静风
温度 16°C
湿度 88%
气压 1002 hPa
能見度: 16.1公里
阴天层高于500英尺

METAR: KJKL 292224Z AUTO 00000KT 10SM OVC005 16/14 A2959 RMK AO2 T01560139

时间: 18:36 (22:36 UTC)

预报

该预报发布于1小时和3分钟前的21:33 UTC
预报有效从29日的 22点(UTC)到 30日的 18点(UTC)
风速3节,风向多变
能見度: 10公里
散云层高于300英尺
多云层高于2500英尺
从 30日的 0000点(UTC)
风速8节,风向北转西北,有时为15节阵风
能見度: 3.2公里
阴天层高于500英尺
小阵雨
从 30日的 0600点(UTC)
风速7节,风向西北,有时为15节阵风
能見度: 0.8公里
阴天层高于300英尺
雾, 附近有阵雨
从 30日的 0800点(UTC)
风速7节,风向北转西北
能見度: 10公里
阴天层高于700英尺
附近有阵雨
从 30日的 1200点(UTC)
风速6节,风向北转西北
能見度: 10公里
阴天层高于1100英尺

TAF: KJKL 292133Z 2922/3018 VRB03KT P6SM SCT003 BKN025 FM300000 33008G15KT 2SM -SHRA OVC005 FM300600 31007G15KT 1/2SM FG VCSH OVC003 FM300800 33007KT P6SM VCSH OVC007 FM301200 33006KT P6SM OVC011

超过4000个机场的气象观测和天气预报(METAR&TAF报告)。

可查询的气象台以黄色和红色小点在地图上表示。

将鼠标移到小点上方,可查看气象台名称。

然后点击查看天气观测和预报。

如需切换地图:点击带黑十字的绿色按钮放大地图;点击带横线的绿色按钮缩小地图;或者点击绿色箭头查看邻近地区的地图。


METAR-TAF: